sensor_id;sensor_type;location;lat;lon;timestamp;temperature;humidity
26107;DHT22;13866;50.748;12.630;2022-10-31T00:00:41;12.30;99.90
26107;DHT22;13866;50.748;12.630;2022-10-31T00:03:07;12.30;99.90
26107;DHT22;13866;50.748;12.630;2022-10-31T00:05:32;12.30;99.90
26107;DHT22;13866;50.748;12.630;2022-10-31T00:07:58;12.10;99.90
26107;DHT22;13866;50.748;12.630;2022-10-31T00:10:23;12.10;99.90
26107;DHT22;13866;50.748;12.630;2022-10-31T00:12:49;12.00;99.90
26107;DHT22;13866;50.748;12.630;2022-10-31T00:15:14;12.00;99.90
26107;DHT22;13866;50.748;12.630;2022-10-31T00:17:40;11.90;99.90
26107;DHT22;13866;50.748;12.630;2022-10-31T00:20:06;11.90;99.90
26107;DHT22;13866;50.748;12.630;2022-10-31T00:22:31;11.80;99.90
26107;DHT22;13866;50.748;12.630;2022-10-31T00:24:57;11.70;99.90
26107;DHT22;13866;50.748;12.630;2022-10-31T00:27:22;11.60;99.90
26107;DHT22;13866;50.748;12.630;2022-10-31T00:29:48;11.60;99.90
26107;DHT22;13866;50.748;12.630;2022-10-31T00:32:14;11.60;99.90
26107;DHT22;13866;50.748;12.630;2022-10-31T00:34:39;11.50;99.90
26107;DHT22;13866;50.748;12.630;2022-10-31T00:37:04;11.50;99.90
26107;DHT22;13866;50.748;12.630;2022-10-31T00:39:30;11.40;99.90
26107;DHT22;13866;50.748;12.630;2022-10-31T00:41:55;11.40;99.90
26107;DHT22;13866;50.748;12.630;2022-10-31T00:44:21;11.40;99.90
26107;DHT22;13866;50.748;12.630;2022-10-31T00:46:46;11.40;99.90
26107;DHT22;13866;50.748;12.630;2022-10-31T00:49:12;11.40;99.90
26107;DHT22;13866;50.748;12.630;2022-10-31T00:51:37;11.40;99.90
26107;DHT22;13866;50.748;12.630;2022-10-31T00:54:03;11.30;99.90
26107;DHT22;13866;50.748;12.630;2022-10-31T00:56:29;11.40;99.90
26107;DHT22;13866;50.748;12.630;2022-10-31T00:58:54;11.40;99.90
26107;DHT22;13866;50.748;12.630;2022-10-31T01:01:20;11.20;99.90
26107;DHT22;13866;50.748;12.630;2022-10-31T01:03:45;11.30;99.90
26107;DHT22;13866;50.748;12.630;2022-10-31T01:06:12;11.20;99.90
26107;DHT22;13866;50.748;12.630;2022-10-31T01:08:38;11.20;99.90
26107;DHT22;13866;50.748;12.630;2022-10-31T01:13:37;11.00;99.90
26107;DHT22;13866;50.748;12.630;2022-10-31T01:16:04;10.90;99.90
26107;DHT22;13866;50.748;12.630;2022-10-31T01:18:31;11.00;99.90
26107;DHT22;13866;50.748;12.630;2022-10-31T01:21:04;11.00;99.90
26107;DHT22;13866;50.748;12.630;2022-10-31T01:23:31;10.90;99.90
26107;DHT22;13866;50.748;12.630;2022-10-31T01:26:06;10.80;99.90
26107;DHT22;13866;50.748;12.630;2022-10-31T01:28:33;10.80;99.90
26107;DHT22;13866;50.748;12.630;2022-10-31T01:31:08;10.80;99.90
26107;DHT22;13866;50.748;12.630;2022-10-31T01:33:34;10.70;99.90
26107;DHT22;13866;50.748;12.630;2022-10-31T01:36:00;10.80;99.90
26107;DHT22;13866;50.748;12.630;2022-10-31T01:38:26;10.70;99.90
26107;DHT22;13866;50.748;12.630;2022-10-31T01:40:52;10.70;99.90
26107;DHT22;13866;50.748;12.630;2022-10-31T01:43:19;10.70;99.90
26107;DHT22;13866;50.748;12.630;2022-10-31T01:45:49;10.70;99.90
26107;DHT22;13866;50.748;12.630;2022-10-31T01:48:19;10.60;99.90
26107;DHT22;13866;50.748;12.630;2022-10-31T01:50:47;10.50;99.90
26107;DHT22;13866;50.748;12.630;2022-10-31T01:53:14;10.50;99.90
26107;DHT22;13866;50.748;12.630;2022-10-31T01:55:44;10.50;99.90
26107;DHT22;13866;50.748;12.630;2022-10-31T01:58:16;10.50;99.90
26107;DHT22;13866;50.748;12.630;2022-10-31T02:00:46;10.40;99.90
26107;DHT22;13866;50.748;12.630;2022-10-31T02:03:13;10.40;99.90
26107;DHT22;13866;50.748;12.630;2022-10-31T02:05:39;10.40;99.90
26107;DHT22;13866;50.748;12.630;2022-10-31T02:08:18;10.40;99.90
26107;DHT22;13866;50.748;12.630;2022-10-31T02:10:45;10.40;99.90
26107;DHT22;13866;50.748;12.630;2022-10-31T02:13:11;10.40;99.90
26107;DHT22;13866;50.748;12.630;2022-10-31T02:15:40;10.40;99.90
26107;DHT22;13866;50.748;12.630;2022-10-31T02:18:07;10.30;99.90
26107;DHT22;13866;50.748;12.630;2022-10-31T02:20:45;10.30;99.90
26107;DHT22;13866;50.748;12.630;2022-10-31T02:31:54;10.30;99.90
26107;DHT22;13866;50.748;12.630;2022-10-31T02:34:26;10.20;99.90
26107;DHT22;13866;50.748;12.630;2022-10-31T02:37:05;10.20;99.90
26107;DHT22;13866;50.748;12.630;2022-10-31T02:39:45;10.20;99.90
26107;DHT22;13866;50.748;12.630;2022-10-31T02:42:26;10.20;99.90
26107;DHT22;13866;50.748;12.630;2022-10-31T02:45:03;10.20;99.90
26107;DHT22;13866;50.748;12.630;2022-10-31T02:47:34;10.40;99.90
26107;DHT22;13866;50.748;12.630;2022-10-31T02:50:12;10.30;99.90
26107;DHT22;13866;50.748;12.630;2022-10-31T02:52:39;10.30;99.90
26107;DHT22;13866;50.748;12.630;2022-10-31T02:57:56;10.30;99.90
26107;DHT22;13866;50.748;12.630;2022-10-31T03:00:22;10.20;99.90
26107;DHT22;13866;50.748;12.630;2022-10-31T03:03:19;10.20;99.90
26107;DHT22;13866;50.748;12.630;2022-10-31T03:11:57;10.20;99.90
26107;DHT22;13866;50.748;12.630;2022-10-31T03:14:36;10.30;99.90
26107;DHT22;13866;50.748;12.630;2022-10-31T03:17:06;10.20;99.90
26107;DHT22;13866;50.748;12.630;2022-10-31T03:19:36;10.20;99.90
26107;DHT22;13866;50.748;12.630;2022-10-31T03:22:18;10.20;99.90
26107;DHT22;13866;50.748;12.630;2022-10-31T03:24:46;10.20;99.90
26107;DHT22;13866;50.748;12.630;2022-10-31T03:27:15;10.20;99.90
26107;DHT22;13866;50.748;12.630;2022-10-31T03:29:44;10.20;99.90
26107;DHT22;13866;50.748;12.630;2022-10-31T03:32:13;10.20;99.90
26107;DHT22;13866;50.748;12.630;2022-10-31T03:34:41;10.20;99.90
26107;DHT22;13866;50.748;12.630;2022-10-31T03:37:10;10.20;99.90
26107;DHT22;13866;50.748;12.630;2022-10-31T03:39:38;10.20;99.90
26107;DHT22;13866;50.748;12.630;2022-10-31T03:42:11;10.20;99.90
26107;DHT22;13866;50.748;12.630;2022-10-31T03:44:38;10.20;99.90
26107;DHT22;13866;50.748;12.630;2022-10-31T03:47:06;10.20;99.90
26107;DHT22;13866;50.748;12.630;2022-10-31T03:49:32;10.10;99.90
26107;DHT22;13866;50.748;12.630;2022-10-31T03:52:19;10.10;99.90
26107;DHT22;13866;50.748;12.630;2022-10-31T03:54:53;10.00;99.90
26107;DHT22;13866;50.748;12.630;2022-10-31T03:57:43;10.00;99.90
26107;DHT22;13866;50.748;12.630;2022-10-31T04:00:12;10.00;99.90
26107;DHT22;13866;50.748;12.630;2022-10-31T04:02:42;9.90;99.90
26107;DHT22;13866;50.748;12.630;2022-10-31T04:05:09;9.90;99.90
26107;DHT22;13866;50.748;12.630;2022-10-31T04:07:41;9.80;99.90
26107;DHT22;13866;50.748;12.630;2022-10-31T04:10:11;9.80;99.90
26107;DHT22;13866;50.748;12.630;2022-10-31T04:12:39;9.70;99.90
26107;DHT22;13866;50.748;12.630;2022-10-31T04:15:06;9.70;99.90
26107;DHT22;13866;50.748;12.630;2022-10-31T04:17:36;9.70;99.90
26107;DHT22;13866;50.748;12.630;2022-10-31T04:20:05;9.60;99.90
26107;DHT22;13866;50.748;12.630;2022-10-31T04:22:30;9.60;99.90
26107;DHT22;13866;50.748;12.630;2022-10-31T04:24:56;9.60;99.90
26107;DHT22;13866;50.748;12.630;2022-10-31T04:27:21;9.60;99.90
26107;DHT22;13866;50.748;12.630;2022-10-31T04:29:47;9.60;99.90
26107;DHT22;13866;50.748;12.630;2022-10-31T04:32:12;9.60;99.90
26107;DHT22;13866;50.748;12.630;2022-10-31T04:34:38;9.60;99.90
26107;DHT22;13866;50.748;12.630;2022-10-31T04:37:03;9.50;99.90
26107;DHT22;13866;50.748;12.630;2022-10-31T04:39:29;9.40;99.90
26107;DHT22;13866;50.748;12.630;2022-10-31T04:41:54;9.40;99.90
26107;DHT22;13866;50.748;12.630;2022-10-31T04:44:20;9.30;99.90
26107;DHT22;13866;50.748;12.630;2022-10-31T04:46:46;9.30;99.90
26107;DHT22;13866;50.748;12.630;2022-10-31T04:49:11;9.30;99.90
26107;DHT22;13866;50.748;12.630;2022-10-31T04:51:37;9.30;99.90
26107;DHT22;13866;50.748;12.630;2022-10-31T04:54:02;9.30;99.90
26107;DHT22;13866;50.748;12.630;2022-10-31T04:56:28;9.30;99.90
26107;DHT22;13866;50.748;12.630;2022-10-31T04:58:53;9.20;99.90
26107;DHT22;13866;50.748;12.630;2022-10-31T05:01:19;9.20;99.90
26107;DHT22;13866;50.748;12.630;2022-10-31T05:03:44;9.20;99.90
26107;DHT22;13866;50.748;12.630;2022-10-31T05:06:10;9.30;99.90
26107;DHT22;13866;50.748;12.630;2022-10-31T05:08:35;9.30;99.90
26107;DHT22;13866;50.748;12.630;2022-10-31T05:11:02;9.10;99.90
26107;DHT22;13866;50.748;12.630;2022-10-31T05:13:28;9.10;99.90
26107;DHT22;13866;50.748;12.630;2022-10-31T05:15:54;9.10;99.90
26107;DHT22;13866;50.748;12.630;2022-10-31T05:18:19;9.00;99.90
26107;DHT22;13866;50.748;12.630;2022-10-31T05:20:45;9.00;99.90
26107;DHT22;13866;50.748;12.630;2022-10-31T05:23:10;9.00;99.90
26107;DHT22;13866;50.748;12.630;2022-10-31T05:25:36;9.00;99.90
26107;DHT22;13866;50.748;12.630;2022-10-31T05:28:01;8.90;99.90
26107;DHT22;13866;50.748;12.630;2022-10-31T05:30:29;8.80;99.90
26107;DHT22;13866;50.748;12.630;2022-10-31T05:32:55;8.80;99.90
26107;DHT22;13866;50.748;12.630;2022-10-31T05:35:30;8.90;99.90
26107;DHT22;13866;50.748;12.630;2022-10-31T05:37:56;8.90;99.90
26107;DHT22;13866;50.748;12.630;2022-10-31T05:40:23;8.90;99.90
26107;DHT22;13866;50.748;12.630;2022-10-31T05:42:51;8.80;99.90
26107;DHT22;13866;50.748;12.630;2022-10-31T05:45:17;8.80;99.90
26107;DHT22;13866;50.748;12.630;2022-10-31T05:47:54;8.90;99.90
26107;DHT22;13866;50.748;12.630;2022-10-31T05:50:20;8.80;99.90
26107;DHT22;13866;50.748;12.630;2022-10-31T05:52:46;8.80;99.90
26107;DHT22;13866;50.748;12.630;2022-10-31T05:55:12;8.80;99.90
26107;DHT22;13866;50.748;12.630;2022-10-31T05:57:40;8.80;99.90
26107;DHT22;13866;50.748;12.630;2022-10-31T06:00:10;8.80;99.90
26107;DHT22;13866;50.748;12.630;2022-10-31T06:02:38;8.80;99.90
26107;DHT22;13866;50.748;12.630;2022-10-31T06:05:07;8.80;99.90
26107;DHT22;13866;50.748;12.630;2022-10-31T06:07:34;8.70;99.90
26107;DHT22;13866;50.748;12.630;2022-10-31T06:10:05;8.80;99.90
26107;DHT22;13866;50.748;12.630;2022-10-31T06:12:35;8.80;99.90
26107;DHT22;13866;50.748;12.630;2022-10-31T06:15:10;8.80;99.90
26107;DHT22;13866;50.748;12.630;2022-10-31T06:17:36;8.80;99.90
26107;DHT22;13866;50.748;12.630;2022-10-31T06:20:03;8.80;99.90
26107;DHT22;13866;50.748;12.630;2022-10-31T06:22:29;8.80;99.90
26107;DHT22;13866;50.748;12.630;2022-10-31T06:24:55;8.80;99.90
26107;DHT22;13866;50.748;12.630;2022-10-31T06:27:24;8.80;99.90
26107;DHT22;13866;50.748;12.630;2022-10-31T06:29:54;8.80;99.90
26107;DHT22;13866;50.748;12.630;2022-10-31T06:32:22;8.90;99.90
26107;DHT22;13866;50.748;12.630;2022-10-31T06:34:49;8.90;99.90
26107;DHT22;13866;50.748;12.630;2022-10-31T06:37:15;9.00;99.90
26107;DHT22;13866;50.748;12.630;2022-10-31T06:39:40;9.00;99.90
26107;DHT22;13866;50.748;12.630;2022-10-31T06:42:06;9.10;99.90
26107;DHT22;13866;50.748;12.630;2022-10-31T06:44:32;9.10;99.90
26107;DHT22;13866;50.748;12.630;2022-10-31T06:46:58;9.20;99.90
26107;DHT22;13866;50.748;12.630;2022-10-31T06:49:23;9.30;99.90
26107;DHT22;13866;50.748;12.630;2022-10-31T06:51:49;9.30;99.90
26107;DHT22;13866;50.748;12.630;2022-10-31T06:54:16;9.30;99.90
26107;DHT22;13866;50.748;12.630;2022-10-31T06:56:41;9.30;99.90
26107;DHT22;13866;50.748;12.630;2022-10-31T06:59:07;9.20;99.90
26107;DHT22;13866;50.748;12.630;2022-10-31T07:01:33;9.20;99.90
26107;DHT22;13866;50.748;12.630;2022-10-31T07:03:58;9.20;99.90
26107;DHT22;13866;50.748;12.630;2022-10-31T07:06:24;9.20;99.90
26107;DHT22;13866;50.748;12.630;2022-10-31T07:08:49;9.20;99.90
26107;DHT22;13866;50.748;12.630;2022-10-31T07:11:15;9.20;99.90
26107;DHT22;13866;50.748;12.630;2022-10-31T07:13:40;9.30;99.90
26107;DHT22;13866;50.748;12.630;2022-10-31T07:16:07;9.40;99.90
26107;DHT22;13866;50.748;12.630;2022-10-31T07:18:33;9.40;99.90
26107;DHT22;13866;50.748;12.630;2022-10-31T07:20:59;9.40;99.90
26107;DHT22;13866;50.748;12.630;2022-10-31T07:23:24;9.50;99.90
26107;DHT22;13866;50.748;12.630;2022-10-31T07:25:57;9.60;99.90
26107;DHT22;13866;50.748;12.630;2022-10-31T07:28:24;9.60;99.90
26107;DHT22;13866;50.748;12.630;2022-10-31T07:30:51;9.70;99.90
26107;DHT22;13866;50.748;12.630;2022-10-31T07:33:17;9.80;99.90
26107;DHT22;13866;50.748;12.630;2022-10-31T07:35:43;9.80;99.90
26107;DHT22;13866;50.748;12.630;2022-10-31T07:38:10;9.90;99.90
26107;DHT22;13866;50.748;12.630;2022-10-31T07:40:36;10.00;99.90
26107;DHT22;13866;50.748;12.630;2022-10-31T07:43:02;10.10;99.90
26107;DHT22;13866;50.748;12.630;2022-10-31T07:45:27;10.20;99.90
26107;DHT22;13866;50.748;12.630;2022-10-31T07:47:53;10.30;99.90
26107;DHT22;13866;50.748;12.630;2022-10-31T07:50:21;10.40;99.90
26107;DHT22;13866;50.748;12.630;2022-10-31T07:52:48;10.50;99.90
26107;DHT22;13866;50.748;12.630;2022-10-31T07:55:14;10.60;99.90
26107;DHT22;13866;50.748;12.630;2022-10-31T07:57:40;10.70;99.90
26107;DHT22;13866;50.748;12.630;2022-10-31T08:00:07;10.80;99.90
26107;DHT22;13866;50.748;12.630;2022-10-31T08:02:33;10.90;99.90
26107;DHT22;13866;50.748;12.630;2022-10-31T08:04:59;11.00;99.90
26107;DHT22;13866;50.748;12.630;2022-10-31T08:07:25;11.10;99.90
26107;DHT22;13866;50.748;12.630;2022-10-31T08:09:51;11.30;99.90
26107;DHT22;13866;50.748;12.630;2022-10-31T08:12:16;11.50;99.90
26107;DHT22;13866;50.748;12.630;2022-10-31T08:14:42;11.70;99.90
26107;DHT22;13866;50.748;12.630;2022-10-31T08:17:08;11.90;99.90
26107;DHT22;13866;50.748;12.630;2022-10-31T08:19:33;12.10;99.90
26107;DHT22;13866;50.748;12.630;2022-10-31T08:21:59;12.30;99.90
26107;DHT22;13866;50.748;12.630;2022-10-31T08:24:24;12.40;99.90
26107;DHT22;13866;50.748;12.630;2022-10-31T08:26:50;12.60;99.90
26107;DHT22;13866;50.748;12.630;2022-10-31T08:29:15;12.90;99.90
26107;DHT22;13866;50.748;12.630;2022-10-31T08:31:42;13.30;99.90
26107;DHT22;13866;50.748;12.630;2022-10-31T08:34:08;13.50;99.90
26107;DHT22;13866;50.748;12.630;2022-10-31T08:36:33;13.70;99.90
26107;DHT22;13866;50.748;12.630;2022-10-31T08:38:59;14.00;99.90
26107;DHT22;13866;50.748;12.630;2022-10-31T08:41:25;14.30;99.90
26107;DHT22;13866;50.748;12.630;2022-10-31T08:43:50;14.60;99.90
26107;DHT22;13866;50.748;12.630;2022-10-31T08:46:16;14.80;99.90
26107;DHT22;13866;50.748;12.630;2022-10-31T08:48:42;15.10;99.90
26107;DHT22;13866;50.748;12.630;2022-10-31T08:51:08;15.30;99.90
26107;DHT22;13866;50.748;12.630;2022-10-31T08:53:34;15.30;99.90
26107;DHT22;13866;50.748;12.630;2022-10-31T08:55:59;15.40;99.90
26107;DHT22;13866;50.748;12.630;2022-10-31T08:58:25;15.40;99.90
26107;DHT22;13866;50.748;12.630;2022-10-31T09:00:53;15.50;99.90
26107;DHT22;13866;50.748;12.630;2022-10-31T09:03:21;15.60;99.90
26107;DHT22;13866;50.748;12.630;2022-10-31T09:05:47;15.70;99.90
26107;DHT22;13866;50.748;12.630;2022-10-31T09:08:13;15.80;99.90
26107;DHT22;13866;50.748;12.630;2022-10-31T09:10:39;15.80;99.90
26107;DHT22;13866;50.748;12.630;2022-10-31T09:13:07;15.90;99.90
26107;DHT22;13866;50.748;12.630;2022-10-31T09:15:35;16.10;99.90
26107;DHT22;13866;50.748;12.630;2022-10-31T09:18:00;16.20;99.90
26107;DHT22;13866;50.748;12.630;2022-10-31T09:20:27;16.30;99.90
26107;DHT22;13866;50.748;12.630;2022-10-31T09:22:57;16.40;99.90
26107;DHT22;13866;50.748;12.630;2022-10-31T09:25:23;16.50;99.90
26107;DHT22;13866;50.748;12.630;2022-10-31T09:27:49;16.60;99.90
26107;DHT22;13866;50.748;12.630;2022-10-31T09:30:14;16.60;99.90
26107;DHT22;13866;50.748;12.630;2022-10-31T09:32:40;16.90;99.90
26107;DHT22;13866;50.748;12.630;2022-10-31T09:35:06;17.20;99.90
26107;DHT22;13866;50.748;12.630;2022-10-31T09:37:31;17.20;99.90
26107;DHT22;13866;50.748;12.630;2022-10-31T09:39:57;17.40;99.90
26107;DHT22;13866;50.748;12.630;2022-10-31T09:45:18;17.30;99.90
26107;DHT22;13866;50.748;12.630;2022-10-31T09:50:24;17.50;99.90
26107;DHT22;13866;50.748;12.630;2022-10-31T09:53:02;17.50;99.90
26107;DHT22;13866;50.748;12.630;2022-10-31T09:55:39;17.50;99.90
26107;DHT22;13866;50.748;12.630;2022-10-31T09:58:30;17.60;99.90
26107;DHT22;13866;50.748;12.630;2022-10-31T10:00:57;17.60;99.90
26107;DHT22;13866;50.748;12.630;2022-10-31T10:03:34;17.60;99.90
26107;DHT22;13866;50.748;12.630;2022-10-31T10:06:20;17.60;99.90
26107;DHT22;13866;50.748;12.630;2022-10-31T10:08:46;17.60;99.90
26107;DHT22;13866;50.748;12.630;2022-10-31T10:14:10;17.70;99.90
26107;DHT22;13866;50.748;12.630;2022-10-31T10:17:09;17.80;99.90
26107;DHT22;13866;50.748;12.630;2022-10-31T10:22:40;18.10;99.90
26107;DHT22;13866;50.748;12.630;2022-10-31T10:28:08;18.60;99.90
26107;DHT22;13866;50.748;12.630;2022-10-31T10:33:35;19.00;99.90
26107;DHT22;13866;50.748;12.630;2022-10-31T10:36:27;19.30;99.90
26107;DHT22;13866;50.748;12.630;2022-10-31T10:39:04;19.40;99.90
26107;DHT22;13866;50.748;12.630;2022-10-31T10:41:33;19.10;99.90
26107;DHT22;13866;50.748;12.630;2022-10-31T10:43:58;19.30;99.90
26107;DHT22;13866;50.748;12.630;2022-10-31T10:46:41;19.20;99.90
26107;DHT22;13866;50.748;12.630;2022-10-31T10:49:49;19.20;99.90
26107;DHT22;13866;50.748;12.630;2022-10-31T11:00:24;19.50;99.90
26107;DHT22;13866;50.748;12.630;2022-10-31T11:02:50;19.50;99.90
26107;DHT22;13866;50.748;12.630;2022-10-31T11:05:48;19.60;99.90
26107;DHT22;13866;50.748;12.630;2022-10-31T11:11:06;19.80;99.90
26107;DHT22;13866;50.748;12.630;2022-10-31T11:13:33;20.10;99.90
26107;DHT22;13866;50.748;12.630;2022-10-31T11:16:09;20.20;99.90
26107;DHT22;13866;50.748;12.630;2022-10-31T11:18:39;20.20;99.90
26107;DHT22;13866;50.748;12.630;2022-10-31T11:21:05;19.90;99.90
26107;DHT22;13866;50.748;12.630;2022-10-31T11:23:32;20.10;99.90
26107;DHT22;13866;50.748;12.630;2022-10-31T11:26:04;20.20;99.90
26107;DHT22;13866;50.748;12.630;2022-10-31T11:28:31;20.10;99.90
26107;DHT22;13866;50.748;12.630;2022-10-31T11:31:06;20.30;99.90
26107;DHT22;13866;50.748;12.630;2022-10-31T11:33:49;20.40;99.90
26107;DHT22;13866;50.748;12.630;2022-10-31T11:36:22;20.40;99.90
26107;DHT22;13866;50.748;12.630;2022-10-31T11:38:48;20.50;99.90
26107;DHT22;13866;50.748;12.630;2022-10-31T11:41:35;20.40;99.90
26107;DHT22;13866;50.748;12.630;2022-10-31T11:44:11;19.90;99.90
26107;DHT22;13866;50.748;12.630;2022-10-31T11:46:46;20.20;99.90
26107;DHT22;13866;50.748;12.630;2022-10-31T11:51:52;20.30;99.90
26107;DHT22;13866;50.748;12.630;2022-10-31T11:54:41;20.40;99.90
26107;DHT22;13866;50.748;12.630;2022-10-31T11:57:25;20.40;99.90
26107;DHT22;13866;50.748;12.630;2022-10-31T11:59:54;20.60;99.90
26107;DHT22;13866;50.748;12.630;2022-10-31T12:02:21;20.50;99.90
26107;DHT22;13866;50.748;12.630;2022-10-31T12:04:55;20.60;99.90
26107;DHT22;13866;50.748;12.630;2022-10-31T12:07:23;20.40;99.90
26107;DHT22;13866;50.748;12.630;2022-10-31T12:09:49;20.60;99.90
26107;DHT22;13866;50.748;12.630;2022-10-31T12:12:34;20.50;99.90
26107;DHT22;13866;50.748;12.630;2022-10-31T12:15:07;20.60;99.90
26107;DHT22;13866;50.748;12.630;2022-10-31T12:20:40;20.70;99.90
26107;DHT22;13866;50.748;12.630;2022-10-31T12:23:25;20.80;99.90
26107;DHT22;13866;50.748;12.630;2022-10-31T12:28:53;20.50;99.90
26107;DHT22;13866;50.748;12.630;2022-10-31T12:31:43;20.60;99.90
26107;DHT22;13866;50.748;12.630;2022-10-31T12:40:10;20.30;99.90
26107;DHT22;13866;50.748;12.630;2022-10-31T12:45:50;20.40;99.90
26107;DHT22;13866;50.748;12.630;2022-10-31T12:48:49;20.50;99.90
26107;DHT22;13866;50.748;12.630;2022-10-31T12:51:49;20.40;99.90
26107;DHT22;13866;50.748;12.630;2022-10-31T12:54:42;20.50;99.90
26107;DHT22;13866;50.748;12.630;2022-10-31T12:57:23;20.60;99.90
26107;DHT22;13866;50.748;12.630;2022-10-31T13:00:04;20.70;99.90
26107;DHT22;13866;50.748;12.630;2022-10-31T13:02:55;20.70;99.90
26107;DHT22;13866;50.748;12.630;2022-10-31T13:05:33;20.80;99.90
26107;DHT22;13866;50.748;12.630;2022-10-31T13:08:17;20.80;99.90
26107;DHT22;13866;50.748;12.630;2022-10-31T13:10:56;20.90;99.90
26107;DHT22;13866;50.748;12.630;2022-10-31T13:13:38;20.80;99.90
26107;DHT22;13866;50.748;12.630;2022-10-31T13:16:17;20.70;99.90
26107;DHT22;13866;50.748;12.630;2022-10-31T13:18:54;20.60;99.90
26107;DHT22;13866;50.748;12.630;2022-10-31T13:21:35;20.50;99.90
26107;DHT22;13866;50.748;12.630;2022-10-31T13:24:05;20.40;99.90
26107;DHT22;13866;50.748;12.630;2022-10-31T13:26:38;20.30;99.90
26107;DHT22;13866;50.748;12.630;2022-10-31T13:29:23;20.20;99.90
26107;DHT22;13866;50.748;12.630;2022-10-31T13:31:50;20.10;99.90
26107;DHT22;13866;50.748;12.630;2022-10-31T13:34:40;20.00;99.90
26107;DHT22;13866;50.748;12.630;2022-10-31T13:37:30;19.90;99.90
26107;DHT22;13866;50.748;12.630;2022-10-31T13:43:06;19.70;99.90
26107;DHT22;13866;50.748;12.630;2022-10-31T13:45:35;19.50;99.90
26107;DHT22;13866;50.748;12.630;2022-10-31T13:50:58;19.20;99.90
26107;DHT22;13866;50.748;12.630;2022-10-31T13:53:58;19.10;99.90
26107;DHT22;13866;50.748;12.630;2022-10-31T13:56:29;19.00;99.90
26107;DHT22;13866;50.748;12.630;2022-10-31T13:59:20;18.90;99.90
26107;DHT22;13866;50.748;12.630;2022-10-31T14:01:58;18.80;99.90
26107;DHT22;13866;50.748;12.630;2022-10-31T14:04:58;18.70;99.90
26107;DHT22;13866;50.748;12.630;2022-10-31T14:07:22;18.60;99.90
26107;DHT22;13866;50.748;12.630;2022-10-31T14:10:06;18.60;99.90
26107;DHT22;13866;50.748;12.630;2022-10-31T14:12:42;18.60;99.90
26107;DHT22;13866;50.748;12.630;2022-10-31T14:15:24;18.50;99.90
26107;DHT22;13866;50.748;12.630;2022-10-31T14:17:57;18.50;99.90
26107;DHT22;13866;50.748;12.630;2022-10-31T14:20:42;18.40;99.90
26107;DHT22;13866;50.748;12.630;2022-10-31T14:31:44;18.10;99.90
26107;DHT22;13866;50.748;12.630;2022-10-31T14:42:31;17.90;99.90
26107;DHT22;13866;50.748;12.630;2022-10-31T14:45:15;17.80;99.90
26107;DHT22;13866;50.748;12.630;2022-10-31T14:47:46;17.70;99.90
26107;DHT22;13866;50.748;12.630;2022-10-31T14:53:17;17.60;99.90
26107;DHT22;13866;50.748;12.630;2022-10-31T14:55:48;17.60;99.90
26107;DHT22;13866;50.748;12.630;2022-10-31T14:58:25;17.50;99.90
26107;DHT22;13866;50.748;12.630;2022-10-31T15:00:55;17.40;99.90
26107;DHT22;13866;50.748;12.630;2022-10-31T15:03:29;17.40;99.90
26107;DHT22;13866;50.748;12.630;2022-10-31T15:06:00;17.40;99.90
26107;DHT22;13866;50.748;12.630;2022-10-31T15:08:35;17.30;99.90
26107;DHT22;13866;50.748;12.630;2022-10-31T15:11:25;17.20;99.90
26107;DHT22;13866;50.748;12.630;2022-10-31T15:18:57;16.90;99.90
26107;DHT22;13866;50.748;12.630;2022-10-31T15:21:25;16.80;99.90
26107;DHT22;13866;50.748;12.630;2022-10-31T15:23:55;16.60;99.90
26107;DHT22;13866;50.748;12.630;2022-10-31T15:26:23;16.50;99.90
26107;DHT22;13866;50.748;12.630;2022-10-31T15:29:04;16.40;99.90
26107;DHT22;13866;50.748;12.630;2022-10-31T15:31:30;16.30;99.90
26107;DHT22;13866;50.748;12.630;2022-10-31T15:34:00;16.20;99.90
26107;DHT22;13866;50.748;12.630;2022-10-31T15:36:28;16.10;99.90
26107;DHT22;13866;50.748;12.630;2022-10-31T15:38:55;16.00;99.90
26107;DHT22;13866;50.748;12.630;2022-10-31T15:44:01;15.70;99.90
26107;DHT22;13866;50.748;12.630;2022-10-31T15:46:27;15.60;99.90
26107;DHT22;13866;50.748;12.630;2022-10-31T15:48:53;15.40;99.90
26107;DHT22;13866;50.748;12.630;2022-10-31T15:51:31;15.30;99.90
26107;DHT22;13866;50.748;12.630;2022-10-31T15:53:58;15.30;99.90
26107;DHT22;13866;50.748;12.630;2022-10-31T15:56:30;15.10;99.90
26107;DHT22;13866;50.748;12.630;2022-10-31T15:58:58;15.00;99.90
26107;DHT22;13866;50.748;12.630;2022-10-31T16:01:26;15.00;99.90
26107;DHT22;13866;50.748;12.630;2022-10-31T16:04:05;14.90;99.90
26107;DHT22;13866;50.748;12.630;2022-10-31T16:06:40;14.80;99.90
26107;DHT22;13866;50.748;12.630;2022-10-31T16:09:21;14.70;99.90
26107;DHT22;13866;50.748;12.630;2022-10-31T16:11:47;14.60;99.90
26107;DHT22;13866;50.748;12.630;2022-10-31T16:14:17;14.50;99.90
26107;DHT22;13866;50.748;12.630;2022-10-31T16:16:49;14.40;99.90
26107;DHT22;13866;50.748;12.630;2022-10-31T16:19:18;14.40;99.90
26107;DHT22;13866;50.748;12.630;2022-10-31T16:21:44;14.30;99.90
26107;DHT22;13866;50.748;12.630;2022-10-31T16:26:52;14.10;99.90
26107;DHT22;13866;50.748;12.630;2022-10-31T16:29:28;14.00;99.90
26107;DHT22;13866;50.748;12.630;2022-10-31T16:31:54;13.90;99.90
26107;DHT22;13866;50.748;12.630;2022-10-31T16:34:21;13.90;99.90
26107;DHT22;13866;50.748;12.630;2022-10-31T16:36:47;13.90;99.90
26107;DHT22;13866;50.748;12.630;2022-10-31T16:39:13;13.80;99.90
26107;DHT22;13866;50.748;12.630;2022-10-31T16:41:44;13.80;99.90
26107;DHT22;13866;50.748;12.630;2022-10-31T16:44:28;13.80;99.90
26107;DHT22;13866;50.748;12.630;2022-10-31T16:49:32;13.60;99.90
26107;DHT22;13866;50.748;12.630;2022-10-31T16:51:57;13.50;99.90
26107;DHT22;13866;50.748;12.630;2022-10-31T16:54:23;13.50;99.90
26107;DHT22;13866;50.748;12.630;2022-10-31T16:56:48;13.40;99.90
26107;DHT22;13866;50.748;12.630;2022-10-31T16:59:14;13.40;99.90
26107;DHT22;13866;50.748;12.630;2022-10-31T17:01:40;13.40;99.90
26107;DHT22;13866;50.748;12.630;2022-10-31T17:04:11;13.30;99.90
26107;DHT22;13866;50.748;12.630;2022-10-31T17:06:37;13.30;99.90
26107;DHT22;13866;50.748;12.630;2022-10-31T17:09:02;13.20;99.90
26107;DHT22;13866;50.748;12.630;2022-10-31T17:11:28;13.20;99.90
26107;DHT22;13866;50.748;12.630;2022-10-31T17:13:53;13.20;99.90
26107;DHT22;13866;50.748;12.630;2022-10-31T17:16:19;13.10;99.90
26107;DHT22;13866;50.748;12.630;2022-10-31T17:18:45;13.10;99.90
26107;DHT22;13866;50.748;12.630;2022-10-31T17:21:18;13.00;99.90
26107;DHT22;13866;50.748;12.630;2022-10-31T17:23:45;13.00;99.90